Time;durP1;ratioP1;P1;durP2;ratioP2;P2;SDS_P1;SDS_P2;PMS_P1;PMS_P2;Temp;Humidity;BMP_temperature;BMP_pressure;BME280_temperature;BME280_humidity;BME280_pressure;Samples;Min_cycle;Max_cycle;Signal;HPM_P1;HPM_P2
2022/08/22 00:02:55;;;;;;;8.18;3.55;;;;;;;17.70;98.31;101425.31;6182238;23;20005;-69
2022/08/22 00:05:32;;;;;;;10.10;3.70;;;;;;;17.58;100.00;101427.38;6182367;23;20092;-71
2022/08/22 00:08:11;;;;;;;15.60;4.13;;;;;;;17.50;100.00;101429.47;6183992;23;20510;-70
2022/08/22 00:11:06;;;;;;;11.20;3.90;;;;;;;17.43;100.00;101423.38;6184924;23;20009;-70
2022/08/22 00:13:54;;;;;;;23.20;4.63;;;;;;;17.41;99.17;101428.28;6184530;23;20008;-69
2022/08/22 00:16:38;;;;;;;23.80;4.25;;;;;;;17.33;100.00;101420.53;6184369;23;20449;-71
2022/08/22 00:19:34;;;;;;;18.00;3.90;;;;;;;17.41;99.61;101431.03;6183917;23;20009;-71
2022/08/22 00:22:38;;;;;;;15.00;4.15;;;;;;;17.40;98.83;101425.81;6157169;23;20478;-71
2022/08/22 00:25:45;;;;;;;17.65;4.40;;;;;;;17.31;100.00;101426.25;6183628;23;20427;-71
2022/08/22 00:28:23;;;;;;;27.65;4.78;;;;;;;17.29;100.00;101422.97;6151879;23;20013;-69
2022/08/22 00:31:24;;;;;;;23.52;4.93;;;;;;;17.32;98.43;101430.66;6154220;23;20024;-69
2022/08/22 00:34:01;;;;;;;19.33;4.10;;;;;;;17.26;99.45;101420.75;6183682;23;20033;-73
2022/08/22 00:36:58;;;;;;;17.00;5.05;;;;;;;17.34;97.54;101428.47;6184382;23;20312;-71
2022/08/22 00:39:32;;;;;;;15.93;4.47;;;;;;;17.22;99.84;101424.25;6184291;23;20136;-70
2022/08/22 00:42:38;;;;;;;13.45;3.70;;;;;;;17.26;99.75;101423.47;6183754;23;20001;-70
2022/08/22 00:45:29;;;;;;;17.30;4.43;;;;;;;17.22;100.00;101426.97;6184385;23;20113;-70
2022/08/22 00:48:17;;;;;;;23.23;4.03;;;;;;;17.30;100.00;101426.50;6184420;23;20012;-68
2022/08/22 00:51:00;;;;;;;12.05;3.58;;;;;;;17.26;100.00;101425.41;6184056;23;20001;-70
2022/08/22 00:53:47;;;;;;;12.80;3.88;;;;;;;17.28;100.00;101425.94;6184219;23;20027;-71
2022/08/22 00:56:25;;;;;;;14.55;3.72;;;;;;;17.28;100.00;101434.16;6183718;23;20363;-71
2022/08/22 00:59:21;;;;;;;12.18;3.80;;;;;;;17.33;100.00;101431.47;6184416;23;20036;-71
2022/08/22 01:01:52;;;;;;;10.50;3.80;;;;;;;17.25;100.00;101426.47;6154910;23;20005;-69
2022/08/22 01:04:23;;;;;;;;;;;;;;;17.42;96.27;101429.13;6184998;23;20084;-69
2022/08/22 01:07:25;;;;;;;15.93;4.35;;;;;;;17.31;100.00;101439.94;6183928;23;19914;-71
2022/08/22 01:10:17;;;;;;;22.83;5.70;;;;;;;17.33;100.00;101420.53;6184427;23;20048;-69
2022/08/22 01:12:46;;;;;;;12.88;4.07;;;;;;;17.36;100.00;101420.00;6182679;23;20474;-70
2022/08/22 01:15:20;;;;;;;13.13;4.15;;;;;;;17.42;100.00;101418.16;6184567;23;20016;-72
2022/08/22 01:18:09;;;;;;;11.48;4.80;;;;;;;17.46;99.19;101420.13;6184311;23;20005;-72
2022/08/22 01:21:05;;;;;;;14.82;4.97;;;;;;;17.50;99.26;101420.47;6184308;23;20009;-71
2022/08/22 01:23:42;;;;;;;14.80;6.55;;;;;;;17.56;97.56;101418.59;6184227;23;20100;-71
2022/08/22 01:26:39;;;;;;;12.05;5.75;;;;;;;17.60;96.46;101422.47;6157396;23;20043;-73
2022/08/22 01:29:23;;;;;;;14.50;6.30;;;;;;;17.64;94.48;101426.34;6183925;23;20012;-72
2022/08/22 01:32:08;;;;;;;13.02;6.10;;;;;;;17.66;93.16;101419.53;6155213;23;20009;-73
2022/08/22 01:35:01;;;;;;;13.00;5.97;;;;;;;17.65;90.71;101419.78;6181735;23;20009;-71
2022/08/22 01:38:04;;;;;;;13.73;6.38;;;;;;;17.65;91.83;101423.34;6185960;23;20032;-71
2022/08/22 01:40:58;;;;;;;14.18;6.38;;;;;;;17.68;90.29;101417.34;6186331;23;20032;-73
2022/08/22 01:43:35;;;;;;;15.25;6.50;;;;;;;17.68;91.11;101422.81;6185852;23;20012;-71
2022/08/22 01:46:25;;;;;;;17.23;6.10;;;;;;;17.65;92.29;101422.53;6185983;23;20005;-71
2022/08/22 01:49:13;;;;;;;11.10;6.03;;;;;;;17.64;92.43;101416.22;6184306;23;20009;-73
2022/08/22 01:51:45;;;;;;;11.23;5.65;;;;;;;17.54;92.70;101413.38;6185781;23;20005;-72
2022/08/22 01:54:22;;;;;;;15.38;6.63;;;;;;;17.51;93.36;101403.78;6185231;23;20063;-71
2022/08/22 01:56:48;;;;;;;11.75;5.22;;;;;;;17.48;91.39;101401.56;6185849;23;20008;-72
2022/08/22 01:59:25;;;;;;;11.57;5.90;;;;;;;17.51;91.87;101419.34;6186087;23;20001;-72
2022/08/22 02:02:00;;;;;;;15.52;6.28;;;;;;;17.53;92.93;101419.94;6156530;23;20445;-71
2022/08/22 02:04:42;;;;;;;12.82;6.45;;;;;;;17.54;92.90;101413.38;6185889;23;20051;-73
2022/08/22 02:07:19;;;;;;;12.50;5.55;;;;;;;17.50;95.07;101421.28;6184958;23;20427;-72
2022/08/22 02:09:48;;;;;;;10.98;5.68;;;;;;;17.53;93.26;101411.75;6186096;23;20028;-73
2022/08/22 02:12:13;;;;;;;11.90;5.85;;;;;;;17.54;91.79;101416.09;6159149;23;20009;-72
2022/08/22 02:15:26;;;;;;;17.63;6.40;;;;;;;17.53;93.07;101419.94;6185912;23;20084;-72
2022/08/22 02:18:03;;;;;;;10.63;5.68;;;;;;;17.46;93.64;101409.19;6145949;23;20098;-72
2022/08/22 02:20:38;;;;;;;13.05;6.20;;;;;;;17.47;93.41;101410.84;6185904;23;20078;-72
2022/08/22 02:23:28;;;;;;;14.15;6.97;;;;;;;17.41;94.04;101409.16;6184493;23;20008;-71
2022/08/22 02:26:04;;;;;;;12.63;6.32;;;;;;;17.39;94.92;101405.81;6185166;23;20335;-73
2022/08/22 02:28:56;;;;;;;10.90;6.22;;;;;;;17.45;94.18;101404.81;6185568;23;20009;-74
2022/08/22 02:31:37;;;;;;;13.85;6.35;;;;;;;17.45;95.31;101406.72;6185457;23;20005;-68
2022/08/22 02:34:20;;;;;;;11.48;5.78;;;;;;;17.44;95.36;101405.91;6185482;23;20549;-70
2022/08/22 02:36:52;;;;;;;12.38;6.25;;;;;;;17.38;95.15;101403.34;6158903;23;20354;-72
2022/08/22 02:39:36;;;;;;;11.50;6.45;;;;;;;17.40;95.28;101399.28;6185670;23;20009;-73
2022/08/22 02:42:13;;;;;;;14.82;6.78;;;;;;;17.43;95.29;101404.22;6159019;23;20006;-68
2022/08/22 02:44:52;;;;;;;18.67;6.97;;;;;;;17.44;94.77;101400.41;6185581;23;20005;-72
2022/08/22 02:47:30;;;;;;;15.82;6.38;;;;;;;17.47;93.02;101405.38;6185024;23;20033;-71
2022/08/22 02:50:33;;;;;;;12.80;6.80;;;;;;;17.52;92.90;101404.59;6185077;23;20333;-68
2022/08/22 02:53:20;;;;;;;14.70;6.22;;;;;;;17.41;93.97;101400.94;6147516;23;20065;-71
2022/08/22 02:56:02;;;;;;;13.45;6.50;;;;;;;17.36;96.37;101403.59;6159164;23;20016;-73
2022/08/22 02:58:38;;;;;;;;;;;;;;;17.51;91.80;101402.94;6185782;23;20033;-71
2022/08/22 03:01:20;;;;;;;13.90;6.97;;;;;;;17.31;97.29;101395.34;6182388;23;19904;-72
2022/08/22 03:03:47;;;;;;;14.02;7.07;;;;;;;17.29;97.41;101397.53;6185029;23;20011;-73
2022/08/22 03:06:33;;;;;;;14.95;7.15;;;;;;;17.28;97.23;101399.41;6184612;23;20489;-74
2022/08/22 03:09:17;;;;;;;15.07;7.60;;;;;;;17.26;98.86;101400.78;6182870;23;20359;-72
2022/08/22 03:11:48;;;;;;;15.18;7.25;;;;;;;17.19;100.00;101406.44;6184620;23;20011;-71
2022/08/22 03:14:31;;;;;;;13.07;6.60;;;;;;;17.26;100.00;101403.50;6184766;23;20008;-74
2022/08/22 03:16:59;;;;;;;14.05;7.55;;;;;;;17.12;100.00;101398.44;6158578;23;20249;-72
2022/08/22 03:19:47;;;;;;;17.52;7.78;;;;;;;17.09;100.00;101393.47;6184956;23;20009;-72
2022/08/22 03:22:33;;;;;;;13.23;7.18;;;;;;;17.08;100.00;101391.00;6185010;23;20075;-74
2022/08/22 03:25:21;;;;;;;13.77;7.45;;;;;;;17.03;100.00;101385.44;6184070;23;20011;-71
2022/08/22 03:28:02;;;;;;;14.05;7.25;;;;;;;16.99;100.00;101377.75;6185008;23;20005;-69
2022/08/22 03:31:08;;;;;;;17.10;7.55;;;;;;;17.02;100.00;101376.44;6158842;23;20083;-68
2022/08/22 03:33:34;;;;;;;13.27;7.22;;;;;;;16.93;100.00;101380.69;6182656;23;20015;-71
2022/08/22 03:36:27;;;;;;;14.75;7.53;;;;;;;17.01;100.00;101380.25;6184977;23;20009;-69
2022/08/22 03:39:07;;;;;;;15.52;7.55;;;;;;;17.02;100.00;101379.16;6151904;23;20338;-69
2022/08/22 03:41:54;;;;;;;15.05;7.32;;;;;;;17.00;100.00;101379.44;6184935;23;20415;-70
2022/08/22 03:45:04;;;;;;;12.45;7.47;;;;;;;17.06;100.00;101371.28;6184684;23;20005;-71
2022/08/22 03:48:01;;;;;;;17.42;8.18;;;;;;;16.98;100.00;101373.41;6185053;23;20009;-74
2022/08/22 03:50:46;;;;;;;17.45;7.63;;;;;;;16.93;100.00;101362.38;6158140;23;20013;-72
2022/08/22 03:53:45;;;;;;;13.15;6.60;;;;;;;16.99;100.00;101361.34;6158406;23;20016;-73
2022/08/22 03:56:21;;;;;;;12.63;7.38;;;;;;;16.90;100.00;101368.38;6184304;23;20052;-73
2022/08/22 03:58:59;;;;;;;14.60;7.13;;;;;;;16.91;100.00;101364.56;6184917;23;20016;-71
2022/08/22 04:01:54;;;;;;;15.38;7.35;;;;;;;16.94;100.00;101360.47;6181900;23;20308;-71
2022/08/22 04:04:42;;;;;;;17.35;7.32;;;;;;;16.93;100.00;101365.13;6184468;23;20063;-71
2022/08/22 04:07:43;;;;;;;15.57;7.28;;;;;;;16.93;100.00;101365.13;6184278;23;20059;-72
2022/08/22 04:10:36;;;;;;;16.58;7.45;;;;;;;16.93;100.00;101364.31;6184076;23;20120;-74
2022/08/22 04:13:20;;;;;;;17.45;7.35;;;;;;;16.91;100.00;101369.19;6184568;23;20427;-71
2022/08/22 04:16:13;;;;;;;16.67;7.65;;;;;;;16.92;100.00;101376.31;6184803;23;20012;-72
2022/08/22 04:18:58;;;;;;;15.20;7.18;;;;;;;16.91;100.00;101369.19;6184546;23;20030;-73
2022/08/22 04:21:39;;;;;;;19.23;6.88;;;;;;;16.92;100.00;101379.84;6158149;23;20013;-72
2022/08/22 04:24:37;;;;;;;12.00;7.40;;;;;;;16.92;100.00;101387.25;6184593;23;20001;-72
2022/08/22 04:27:19;;;;;;;15.38;7.43;;;;;;;16.84;100.00;101388.47;6184160;23;20001;-74
2022/08/22 04:30:01;;;;;;;15.43;7.72;;;;;;;16.86;100.00;101393.69;6183246;23;20002;-71
2022/08/22 04:32:51;;;;;;;22.88;7.75;;;;;;;16.91;100.00;101385.56;6184747;23;20009;-74
2022/08/22 04:35:27;;;;;;;15.98;7.22;;;;;;;16.84;100.00;101391.22;6184192;23;20434;-71
2022/08/22 04:38:19;;;;;;;13.38;7.07;;;;;;;16.86;100.00;101389.03;6183939;23;20051;-73
2022/08/22 04:40:49;;;;;;;;;;;;;;;16.98;100.00;101381.59;6184958;23;20331;-74
2022/08/22 04:43:33;;;;;;;16.27;8.05;;;;;;;16.89;100.00;101380.38;6157501;23;20310;-72
2022/08/22 04:46:09;;;;;;;16.70;7.40;;;;;;;16.78;100.00;101386.78;6184400;23;20005;-71
2022/08/22 04:48:41;;;;;;;18.73;8.25;;;;;;;16.74;100.00;101385.63;6183686;23;20009;-71
2022/08/22 04:51:20;;;;;;;17.17;7.95;;;;;;;16.71;100.00;101389.66;6158031;23;20005;-72
2022/08/22 04:54:04;;;;;;;15.20;7.15;;;;;;;16.78;100.00;101387.59;6183155;23;20051;-72
2022/08/22 04:56:54;;;;;;;11.75;7.28;;;;;;;16.80;100.00;101393.66;6184665;23;20009;-71
2022/08/22 04:59:19;;;;;;;15.05;7.25;;;;;;;16.80;100.00;101396.38;6184354;23;19997;-72
2022/08/22 05:01:47;;;;;;;14.10;7.28;;;;;;;16.81;100.00;101398.00;6181882;23;20009;-71
2022/08/22 05:04:23;;;;;;;15.40;7.60;;;;;;;16.79;100.00;101394.72;6183896;23;20029;-71
2022/08/22 05:06:55;;;;;;;15.02;7.45;;;;;;;16.85;100.00;101395.63;6184644;23;20001;-71
2022/08/22 05:09:27;;;;;;;13.45;7.50;;;;;;;16.89;100.00;101398.69;6183979;23;20100;-73
2022/08/22 05:11:59;;;;;;;15.65;7.82;;;;;;;16.93;100.00;101408.03;6186527;23;20008;-71
2022/08/22 05:14:47;;;;;;;14.10;7.40;;;;;;;16.95;100.00;101403.97;6186571;23;20012;-73
2022/08/22 05:17:20;;;;;;;16.05;7.38;;;;;;;16.98;100.00;101395.28;6185266;23;20342;-72
2022/08/22 05:19:49;;;;;;;12.48;7.65;;;;;;;16.98;100.00;101402.63;6185940;23;20015;-72
2022/08/22 05:22:23;;;;;;;17.88;8.45;;;;;;;17.01;100.00;101396.66;6186150;23;20063;-71
2022/08/22 05:24:55;;;;;;;13.75;6.82;;;;;;;16.95;100.00;101401.25;6186202;23;20005;-72
2022/08/22 05:27:26;;;;;;;18.83;7.32;;;;;;;16.99;100.00;101394.16;6185793;23;20083;-72
2022/08/22 05:30:00;;;;;;;15.05;7.20;;;;;;;16.98;100.00;101397.16;6185544;23;20004;-71
2022/08/22 05:32:31;;;;;;;16.35;7.97;;;;;;;16.98;100.00;101410.81;6186020;23;20005;-74
2022/08/22 05:35:00;;;;;;;15.15;7.47;;;;;;;17.00;100.00;101411.41;6185828;23;20446;-74
2022/08/22 05:37:47;;;;;;;14.63;7.70;;;;;;;17.05;100.00;101418.84;6186234;23;20076;-69
2022/08/22 05:40:25;;;;;;;15.50;7.63;;;;;;;17.04;100.00;101409.00;6185677;23;20008;-72
2022/08/22 05:42:52;;;;;;;17.30;7.68;;;;;;;17.05;100.00;101411.47;6185882;23;20005;-72
2022/08/22 05:45:18;;;;;;;18.35;7.57;;;;;;;17.03;100.00;101405.44;6185474;23;20005;-72
2022/08/22 05:47:53;;;;;;;13.98;7.75;;;;;;;17.10;100.00;101405.22;6185828;23;20005;-72
2022/08/22 05:50:33;;;;;;;17.63;7.90;;;;;;;17.14;100.00;101418.13;6159493;23;20013;-72
2022/08/22 05:53:11;;;;;;;15.75;7.60;;;;;;;17.18;100.00;101413.81;6186247;23;20088;-72
2022/08/22 05:56:01;;;;;;;15.63;8.07;;;;;;;17.22;100.00;101407.84;6185673;23;20033;-72
2022/08/22 05:58:42;;;;;;;13.82;7.65;;;;;;;17.18;100.00;101408.34;6186077;23;20024;-72
2022/08/22 06:01:23;;;;;;;18.83;7.85;;;;;;;17.22;100.00;101408.66;6182821;23;20017;-73
2022/08/22 06:04:08;;;;;;;17.17;7.95;;;;;;;17.21;100.00;101395.22;6185500;23;20001;-72
2022/08/22 06:06:41;;;;;;;16.27;8.07;;;;;;;17.24;100.00;101405.66;6185864;23;20033;-71
2022/08/22 06:09:27;;;;;;;19.58;8.13;;;;;;;17.25;100.00;101407.31;6185237;23;20084;-72
2022/08/22 06:12:10;;;;;;;14.15;7.72;;;;;;;17.24;100.00;101409.25;6185640;23;20005;-73
2022/08/22 06:14:53;;;;;;;19.08;8.55;;;;;;;17.25;100.00;101410.88;6159541;23;20012;-76
2022/08/22 06:17:31;;;;;;;21.13;8.82;;;;;;;17.25;100.00;101407.31;6185217;23;20032;-73
2022/08/22 06:19:58;;;;;;;19.75;9.13;;;;;;;17.25;100.00;101408.13;6159179;23;20437;-73
2022/08/22 06:22:30;;;;;;;17.60;8.25;;;;;;;17.30;100.00;101415.56;6185501;23;20036;-73
2022/08/22 06:25:11;;;;;;;19.60;8.60;;;;;;;17.33;100.00;101412.31;6184153;23;20513;-72
2022/08/22 06:27:37;;;;;;;;;;;;;;;17.47;100.00;101421.78;6159691;23;20060;-70
2022/08/22 06:30:05;;;;;;;15.32;9.23;;;;;;;17.41;100.00;101417.34;6158786;23;19904;-73
2022/08/22 06:32:33;;;;;;;16.95;8.90;;;;;;;17.41;100.00;101416.50;6184477;23;20005;-72
2022/08/22 06:36:29;;;;;;;18.25;9.10;;;;;;;17.47;100.00;101420.97;6185882;23;20001;-73
2022/08/22 06:38:17;;;;;;;21.58;9.05;;;;;;;17.44;100.00;101416.84;6185225;23;20379;-73
2022/08/22 06:40:43;;;;;;;23.35;9.38;;;;;;;17.50;100.00;101424.00;6185669;23;20005;-73
2022/08/22 06:43:10;;;;;;;16.42;8.65;;;;;;;17.48;100.00;101422.59;6184940;23;20060;-73
2022/08/22 06:45:37;;;;;;;16.25;8.88;;;;;;;17.48;100.00;101420.72;6159195;23;20001;-73
2022/08/22 06:48:05;;;;;;;16.90;8.88;;;;;;;17.54;100.00;101432.53;6184783;23;20048;-73
2022/08/22 06:50:32;;;;;;;19.10;9.30;;;;;;;17.58;100.00;101427.38;6158802;23;20067;-74
2022/08/22 06:53:18;;;;;;;19.40;9.00;;;;;;;17.58;100.00;101421.91;6158269;23;20411;-73
2022/08/22 06:55:49;;;;;;;17.85;9.65;;;;;;;17.59;100.00;101440.81;6157908;23;20013;-72
2022/08/22 06:58:28;;;;;;;20.88;9.93;;;;;;;17.64;100.00;101445.50;6185173;23;20447;-72
2022/08/22 07:00:57;;;;;;;22.25;10.07;;;;;;;17.65;100.00;101444.44;6182526;23;20005;-73
2022/08/22 07:03:33;;;;;;;21.73;10.27;;;;;;;17.63;100.00;101444.66;6158405;23;20015;-73
2022/08/22 07:06:00;;;;;;;21.80;10.07;;;;;;;17.65;100.00;101445.25;6184162;23;20001;-74
2022/08/22 07:08:29;;;;;;;19.30;10.25;;;;;;;17.65;100.00;101445.25;6184845;23;20077;-74
2022/08/22 07:11:02;;;;;;;20.45;10.70;;;;;;;17.68;100.00;101446.66;6185046;23;20477;-74
2022/08/22 07:13:28;;;;;;;24.60;11.50;;;;;;;17.64;100.00;101442.75;6185087;23;20079;-71
2022/08/22 07:16:01;;;;;;;16.75;11.10;;;;;;;17.68;100.00;101452.13;6185141;23;20005;-76
2022/08/22 07:18:28;;;;;;;20.23;10.93;;;;;;;17.73;100.00;101445.88;6184843;23;20012;-70
2022/08/22 07:21:03;;;;;;;20.67;11.38;;;;;;;17.80;100.00;101454.66;6184399;23;20009;-70
2022/08/22 07:23:29;;;;;;;20.45;11.13;;;;;;;17.83;100.00;101446.78;6184567;23;20426;-71
2022/08/22 07:26:15;;;;;;;18.15;11.05;;;;;;;17.83;100.00;101440.47;6184445;23;20005;-75
2022/08/22 07:29:05;;;;;;;17.25;10.75;;;;;;;17.92;100.00;101446.34;6185252;23;20008;-75
2022/08/22 07:31:57;;;;;;;14.02;11.05;;;;;;;18.03;100.00;101442.63;6184600;23;20005;-74
2022/08/22 07:34:51;;;;;;;18.10;10.93;;;;;;;18.07;100.00;101440.97;6184337;23;20478;-71
2022/08/22 07:37:31;;;;;;;18.27;10.68;;;;;;;18.20;100.00;101440.56;6183179;23;20079;-71
2022/08/22 07:40:05;;;;;;;16.52;11.93;;;;;;;18.27;100.00;101432.13;6158721;23;20005;-73
2022/08/22 07:43:09;;;;;;;17.33;10.63;;;;;;;18.42;100.00;101434.16;6184787;23;20059;-72
2022/08/22 07:45:54;;;;;;;21.65;11.13;;;;;;;18.64;100.00;101424.97;6035541;23;20032;-72
2022/08/22 07:48:32;;;;;;;15.88;9.23;;;;;;;18.84;100.00;101422.34;6149106;23;20005;-71
2022/08/22 07:51:12;;;;;;;16.67;11.13;;;;;;;18.91;100.00;101424.84;6184557;23;20005;-72
2022/08/22 07:53:58;;;;;;;17.95;10.40;;;;;;;18.99;100.00;101423.53;6158085;23;20427;-72
2022/08/22 07:56:27;;;;;;;17.35;10.25;;;;;;;19.06;100.00;101427.66;6183866;23;20013;-73
2022/08/22 07:58:58;;;;;;;19.10;11.02;;;;;;;19.17;100.00;101431.25;6184331;23;20013;-72
2022/08/22 08:01:25;;;;;;;17.70;10.77;;;;;;;19.23;100.00;101429.38;6181497;23;20008;-70
2022/08/22 08:04:00;;;;;;;17.70;10.90;;;;;;;19.26;100.00;101429.69;6184077;23;20091;-72
2022/08/22 08:06:27;;;;;;;19.20;10.27;;;;;;;19.35;100.00;101424.47;6183907;23;20005;-73
2022/08/22 08:08:54;;;;;;;17.77;8.93;;;;;;;19.45;98.14;101421.75;6184901;23;20019;-72
2022/08/22 08:11:22;;;;;;;16.08;8.95;;;;;;;19.59;97.79;101421.22;6184477;23;20443;-71
2022/08/22 08:13:53;;;;;;;14.82;9.75;;;;;;;19.63;96.53;101417.66;6184460;23;20059;-69
2022/08/22 08:16:23;;;;;;;17.67;10.63;;;;;;;19.70;97.89;101413.84;6183763;23;20009;-69
2022/08/22 08:18:51;;;;;;;19.15;9.50;;;;;;;19.75;95.77;101416.59;6184837;23;20005;-72
2022/08/22 08:21:30;;;;;;;17.35;8.85;;;;;;;19.80;97.98;101411.94;6184526;23;20008;-70
2022/08/22 08:23:59;;;;;;;16.25;9.63;;;;;;;19.88;95.80;101402.34;6184365;23;20001;-69
2022/08/22 08:26:32;;;;;;;26.15;10.15;;;;;;;19.94;92.95;101401.25;6156811;23;20011;-70
2022/08/22 08:28:58;;;;;;;19.10;10.10;;;;;;;20.01;90.68;101407.28;6157624;23;20009;-73
2022/08/22 08:31:38;;;;;;;16.98;9.15;;;;;;;20.15;92.39;101406.72;6184357;23;20015;-75
2022/08/22 08:34:09;;;;;;;20.58;8.93;;;;;;;20.30;91.41;101398.47;6182628;23;20025;-70
2022/08/22 08:36:40;;;;;;;14.53;7.80;;;;;;;20.42;89.67;101411.09;6184368;23;20028;-68
2022/08/22 08:39:21;;;;;;;18.17;7.28;;;;;;;20.48;85.42;101405.31;6183948;23;20008;-70
2022/08/22 08:41:55;;;;;;;15.18;7.50;;;;;;;20.54;82.31;101404.19;6184586;23;20037;-72
2022/08/22 08:45:04;;;;;;;13.35;7.75;;;;;;;20.59;85.10;101399.78;6156819;23;20008;-71
2022/08/22 08:47:48;;;;;;;18.92;8.23;;;;;;;20.63;84.27;101404.44;6184453;23;20048;-70
2022/08/22 08:50:43;;;;;;;9.52;6.13;;;;;;;20.64;80.16;101403.34;6186380;23;20430;-69
2022/08/22 08:53:38;;;;;;;15.25;6.57;;;;;;;20.67;81.97;101400.06;6185783;23;20009;-67
2022/08/22 08:56:14;;;;;;;10.32;6.18;;;;;;;20.69;80.16;101397.84;6160016;23;20435;-68
2022/08/22 08:58:46;;;;;;;11.88;5.40;;;;;;;20.69;77.44;101405.28;6159472;23;20433;-70
2022/08/22 09:01:51;;;;;;;15.13;5.30;;;;;;;20.76;80.18;101393.97;6184028;23;20411;-70
2022/08/22 09:04:35;;;;;;;16.08;5.72;;;;;;;20.74;77.18;101399.75;6153904;23;20009;-69
2022/08/22 09:07:31;;;;;;;12.50;6.43;;;;;;;20.75;78.02;101390.41;6185506;23;20036;-69
2022/08/22 09:10:15;;;;;;;16.75;7.05;;;;;;;20.80;78.69;101395.88;6185721;23;20009;-69
2022/08/22 09:13:32;;;;;;;13.68;4.97;;;;;;;20.84;79.00;101398.91;6159858;23;20013;-70
2022/08/22 09:16:19;;;;;;;12.43;4.32;;;;;;;20.83;75.92;101395.31;6099272;23;20065;-71
2022/08/22 09:19:00;;;;;;;12.77;4.47;;;;;;;20.91;76.11;101395.84;6186515;23;20038;-69
2022/08/22 09:21:28;;;;;;;;;;;;;;;20.97;77.94;101387.31;6186610;23;20438;-69
2022/08/22 09:24:25;;;;;;;12.95;4.88;;;;;;;20.95;76.17;101377.69;6184772;23;20318;-67
2022/08/22 09:26:55;;;;;;;17.15;4.47;;;;;;;21.02;74.24;101384.53;6186115;23;20009;-68
2022/08/22 09:29:47;;;;;;;14.85;5.10;;;;;;;21.03;74.88;101379.84;6185743;23;20435;-67
2022/08/22 09:32:19;;;;;;;13.55;4.18;;;;;;;21.09;74.25;101388.91;6186386;23;20016;-67
2022/08/22 09:35:09;;;;;;;12.32;3.85;;;;;;;21.13;74.14;101390.78;6186337;23;20011;-68
2022/08/22 09:38:12;;;;;;;7.55;3.80;;;;;;;21.17;72.96;101388.31;6185484;23;20009;-67
2022/08/22 09:40:49;;;;;;;10.75;3.92;;;;;;;21.22;70.98;101396.53;6185448;23;20048;-68
2022/08/22 09:43:22;;;;;;;11.48;4.10;;;;;;;21.22;70.84;101388.28;6185843;23;20005;-69
2022/08/22 09:46:20;;;;;;;11.95;4.10;;;;;;;21.32;72.43;101390.97;6186151;23;20009;-69
2022/08/22 09:49:22;;;;;;;19.90;4.50;;;;;;;21.35;71.38;101390.41;6185203;23;20013;-67
2022/08/22 09:51:53;;;;;;;13.02;3.80;;;;;;;21.40;68.92;101393.13;6186155;23;20001;-70
2022/08/22 09:54:33;;;;;;;10.82;4.00;;;;;;;21.42;67.91;101385.41;6185862;23;20008;-68
2022/08/22 09:57:31;;;;;;;8.87;3.37;;;;;;;21.51;69.25;101388.38;6185898;23;20009;-68
2022/08/22 10:00:09;;;;;;;9.77;3.47;;;;;;;21.57;65.22;101389.19;6159431;23;20092;-67
2022/08/22 10:02:45;;;;;;;13.50;3.42;;;;;;;21.66;65.82;101384.72;6179976;23;20004;-69
2022/08/22 10:05:17;;;;;;;13.35;3.35;;;;;;;21.76;64.54;101381.88;6185820;23;20083;-68
2022/08/22 10:08:07;;;;;;;10.65;3.20;;;;;;;21.87;64.79;101384.56;6185316;23;20338;-67
2022/08/22 10:10:52;;;;;;;12.05;3.63;;;;;;;21.96;64.18;101371.78;6183572;23;20025;-68
2022/08/22 10:13:32;;;;;;;11.65;3.30;;;;;;;22.02;62.89;101376.16;6184742;23;20009;-67
2022/08/22 10:16:23;;;;;;;11.02;3.63;;;;;;;22.07;64.30;101356.81;6185257;23;20009;-67
2022/08/22 10:19:10;;;;;;;8.20;2.83;;;;;;;22.20;64.60;101365.53;6156819;23;20029;-67
2022/08/22 10:22:13;;;;;;;13.65;3.50;;;;;;;22.29;63.01;101364.56;6157095;23;20009;-68
2022/08/22 10:24:57;;;;;;;10.63;3.10;;;;;;;22.38;60.15;101367.56;6184212;23;20001;-68
2022/08/22 10:27:53;;;;;;;7.25;2.88;;;;;;;22.44;61.85;101366.38;6185614;23;20012;-68
2022/08/22 10:30:33;;;;;;;9.77;3.60;;;;;;;22.44;60.18;101360.88;6184887;23;20013;-69
2022/08/22 10:33:12;;;;;;;11.02;3.33;;;;;;;22.42;60.46;101365.03;6185413;23;20040;-67
2022/08/22 10:35:49;;;;;;;12.57;3.67;;;;;;;22.45;60.63;101362.53;6183994;23;20067;-70
2022/08/22 10:38:31;;;;;;;7.10;3.10;;;;;;;22.52;60.53;101350.31;6157435;23;20006;-68
2022/08/22 10:41:07;;;;;;;12.55;3.60;;;;;;;22.60;60.67;101360.69;6179001;23;20001;-67
2022/08/22 10:43:48;;;;;;;10.63;3.30;;;;;;;22.60;59.05;101335.84;6183891;23;20045;-68
2022/08/22 10:46:20;;;;;;;9.52;3.50;;;;;;;22.64;58.56;101346.00;6185521;23;20032;-70
2022/08/22 10:48:47;;;;;;;9.38;3.08;;;;;;;22.79;58.02;101344.19;6184689;23;20423;-70
2022/08/22 10:51:19;;;;;;;10.35;2.65;;;;;;;22.86;56.55;101346.56;6185008;23;20001;-69
2022/08/22 10:54:03;;;;;;;;;;;;;;;22.90;60.24;101350.38;6184645;23;20011;-68
2022/08/22 10:56:37;;;;;;;10.77;2.78;;;;;;;23.00;56.00;101337.25;6184678;23;19987;-68
2022/08/22 10:59:24;;;;;;;7.65;2.65;;;;;;;23.10;56.38;101346.56;6185147;23;20414;-70
2022/08/22 11:02:19;;;;;;;9.15;2.47;;;;;;;23.09;55.71;101340.22;6181515;23;20001;-68
2022/08/22 11:05:17;;;;;;;9.45;2.53;;;;;;;23.11;56.72;101340.72;6183919;23;20051;-70
2022/08/22 11:08:18;;;;;;;9.20;2.70;;;;;;;23.16;57.20;101346.19;6183491;23;20092;-68
2022/08/22 11:10:49;;;;;;;7.93;2.75;;;;;;;23.18;54.90;101341.19;6180031;23;20005;-69
2022/08/22 11:13:28;;;;;;;8.45;2.95;;;;;;;23.20;56.44;101342.84;6184690;23;20092;-69
2022/08/22 11:16:30;;;;;;;12.95;2.97;;;;;;;23.22;56.44;101335.06;6184263;23;20008;-69
2022/08/22 11:19:21;;;;;;;9.85;2.95;;;;;;;23.23;56.39;101345.00;6184563;23;20000;-69
2022/08/22 11:21:53;;;;;;;10.35;2.67;;;;;;;23.23;53.92;101336.72;6184109;23;20016;-68
2022/08/22 11:24:30;;;;;;;;;;;;;;;23.32;57.30;101335.72;6158202;23;20009;-68
2022/08/22 11:27:13;;;;;;;9.07;2.80;;;;;;;23.31;54.24;101338.78;6182403;23;19908;-69
2022/08/22 11:29:57;;;;;;;7.80;2.70;;;;;;;23.32;52.18;101326.63;6184369;23;20008;-71
2022/08/22 11:32:34;;;;;;;9.57;2.58;;;;;;;23.34;54.02;101333.50;6184221;23;20005;-68
2022/08/22 11:35:20;;;;;;;10.80;3.20;;;;;;;23.36;55.33;101335.97;6183629;23;20004;-69
2022/08/22 11:37:49;;;;;;;10.88;3.20;;;;;;;23.39;54.70;101329.03;6157403;23;20068;-68
2022/08/22 11:40:36;;;;;;;11.07;3.42;;;;;;;23.36;55.10;101333.22;6184162;23;20083;-69
2022/08/22 11:43:25;;;;;;;11.32;2.63;;;;;;;23.35;54.00;101328.78;6171361;23;20096;-69
2022/08/22 11:45:55;;;;;;;9.52;3.03;;;;;;;23.37;52.98;101326.56;6180299;23;20474;-68
2022/08/22 11:48:24;;;;;;;9.52;3.10;;;;;;;23.35;52.96;101323.28;6180820;23;20005;-69
2022/08/22 11:51:22;;;;;;;9.57;2.90;;;;;;;23.35;52.76;101323.28;6183508;23;20005;-69
2022/08/22 11:54:20;;;;;;;9.45;2.85;;;;;;;23.33;53.24;101320.81;6181137;23;20009;-69
2022/08/22 11:56:59;;;;;;;9.98;2.90;;;;;;;23.32;52.91;101319.16;6156961;23;20015;-69
2022/08/22 12:00:02;;;;;;;8.95;2.63;;;;;;;23.36;54.00;101325.72;6180858;23;20725;-68
2022/08/22 12:02:43;;;;;;;7.95;2.60;;;;;;;23.36;53.16;101322.16;6180122;23;20001;-70
2022/08/22 12:05:16;;;;;;;11.38;2.67;;;;;;;23.36;52.53;101314.69;6181732;23;20104;-69
2022/08/22 12:07:53;;;;;;;9.45;2.95;;;;;;;23.37;53.30;101321.03;6157323;23;20377;-68
2022/08/22 12:10:26;;;;;;;8.80;2.75;;;;;;;23.32;52.97;101318.34;6183897;23;20033;-67
2022/08/22 12:13:11;;;;;;;9.70;2.50;;;;;;;23.38;54.57;101319.91;6183554;23;20009;-69
2022/08/22 12:15:49;;;;;;;10.27;2.70;;;;;;;23.39;54.49;101312.47;6183227;23;20009;-70
2022/08/22 12:18:29;;;;;;;11.05;2.83;;;;;;;23.38;53.29;101317.16;6183980;23;20081;-70
2022/08/22 12:21:15;;;;;;;11.53;2.80;;;;;;;23.38;53.75;101317.16;6182450;23;20047;-70